sensor_id;sensor_type;location;lat;lon;timestamp;P1;durP1;ratioP1;P2;durP2;ratioP2
3995;SDS011;2012;49.794;9.722;2023-01-19T00:00:51;15.60;;;9.40;;
3995;SDS011;2012;49.794;9.722;2023-01-19T00:03:17;14.67;;;9.17;;
3995;SDS011;2012;49.794;9.722;2023-01-19T00:05:44;15.30;;;8.97;;
3995;SDS011;2012;49.794;9.722;2023-01-19T00:08:11;16.00;;;9.13;;
3995;SDS011;2012;49.794;9.722;2023-01-19T00:10:43;16.20;;;9.70;;
3995;SDS011;2012;49.794;9.722;2023-01-19T00:13:11;12.70;;;8.73;;
3995;SDS011;2012;49.794;9.722;2023-01-19T00:15:39;11.70;;;8.50;;
3995;SDS011;2012;49.794;9.722;2023-01-19T00:18:06;13.53;;;8.97;;
3995;SDS011;2012;49.794;9.722;2023-01-19T00:20:35;14.40;;;9.37;;
3995;SDS011;2012;49.794;9.722;2023-01-19T00:23:02;13.77;;;8.90;;
3995;SDS011;2012;49.794;9.722;2023-01-19T00:25:30;16.77;;;9.27;;
3995;SDS011;2012;49.794;9.722;2023-01-19T00:27:57;14.07;;;8.80;;
3995;SDS011;2012;49.794;9.722;2023-01-19T00:30:26;13.67;;;9.40;;
3995;SDS011;2012;49.794;9.722;2023-01-19T00:32:53;14.40;;;9.53;;
3995;SDS011;2012;49.794;9.722;2023-01-19T00:35:20;17.53;;;8.43;;
3995;SDS011;2012;49.794;9.722;2023-01-19T00:37:47;14.83;;;9.40;;
3995;SDS011;2012;49.794;9.722;2023-01-19T00:40:13;12.80;;;8.90;;
3995;SDS011;2012;49.794;9.722;2023-01-19T00:42:40;12.03;;;7.93;;
3995;SDS011;2012;49.794;9.722;2023-01-19T00:45:11;12.83;;;8.60;;
3995;SDS011;2012;49.794;9.722;2023-01-19T00:47:40;17.53;;;8.60;;
3995;SDS011;2012;49.794;9.722;2023-01-19T00:50:08;12.93;;;8.10;;
3995;SDS011;2012;49.794;9.722;2023-01-19T00:52:39;14.67;;;9.53;;
3995;SDS011;2012;49.794;9.722;2023-01-19T00:55:07;12.67;;;7.67;;
3995;SDS011;2012;49.794;9.722;2023-01-19T00:57:35;13.07;;;8.40;;
3995;SDS011;2012;49.794;9.722;2023-01-19T01:00:03;15.60;;;8.07;;
3995;SDS011;2012;49.794;9.722;2023-01-19T01:02:32;10.33;;;8.10;;
3995;SDS011;2012;49.794;9.722;2023-01-19T01:05:00;13.10;;;8.80;;
3995;SDS011;2012;49.794;9.722;2023-01-19T01:07:28;14.53;;;9.20;;
3995;SDS011;2012;49.794;9.722;2023-01-19T01:09:55;18.47;;;9.33;;
3995;SDS011;2012;49.794;9.722;2023-01-19T01:12:22;11.73;;;8.53;;
3995;SDS011;2012;49.794;9.722;2023-01-19T01:14:49;15.53;;;9.23;;
3995;SDS011;2012;49.794;9.722;2023-01-19T01:17:16;13.43;;;7.87;;
3995;SDS011;2012;49.794;9.722;2023-01-19T01:19:50;12.97;;;8.73;;
3995;SDS011;2012;49.794;9.722;2023-01-19T01:22:17;12.53;;;8.47;;
3995;SDS011;2012;49.794;9.722;2023-01-19T01:24:44;10.73;;;7.80;;
3995;SDS011;2012;49.794;9.722;2023-01-19T01:27:11;13.90;;;8.90;;
3995;SDS011;2012;49.794;9.722;2023-01-19T01:29:38;15.93;;;8.70;;
3995;SDS011;2012;49.794;9.722;2023-01-19T01:32:06;16.20;;;8.60;;
3995;SDS011;2012;49.794;9.722;2023-01-19T01:34:33;10.80;;;7.60;;
3995;SDS011;2012;49.794;9.722;2023-01-19T01:37:00;11.87;;;8.37;;
3995;SDS011;2012;49.794;9.722;2023-01-19T01:39:28;11.40;;;8.93;;
3995;SDS011;2012;49.794;9.722;2023-01-19T01:41:54;10.57;;;7.57;;
3995;SDS011;2012;49.794;9.722;2023-01-19T01:47:41;12.33;;;8.13;;
3995;SDS011;2012;49.794;9.722;2023-01-19T01:50:26;14.27;;;8.93;;
3995;SDS011;2012;49.794;9.722;2023-01-19T01:52:58;9.33;;;6.80;;
3995;SDS011;2012;49.794;9.722;2023-01-19T01:55:39;11.57;;;7.93;;
3995;SDS011;2012;49.794;9.722;2023-01-19T01:58:11;17.93;;;8.20;;
3995;SDS011;2012;49.794;9.722;2023-01-19T02:00:40;11.37;;;7.90;;
3995;SDS011;2012;49.794;9.722;2023-01-19T02:03:25;14.40;;;8.10;;
3995;SDS011;2012;49.794;9.722;2023-01-19T02:05:54;12.67;;;8.43;;
3995;SDS011;2012;49.794;9.722;2023-01-19T02:08:33;13.57;;;7.13;;
3995;SDS011;2012;49.794;9.722;2023-01-19T02:11:22;10.70;;;8.50;;
3995;SDS011;2012;49.794;9.722;2023-01-19T02:14:07;10.57;;;7.57;;
3995;SDS011;2012;49.794;9.722;2023-01-19T02:16:35;8.77;;;7.03;;
3995;SDS011;2012;49.794;9.722;2023-01-19T02:19:03;12.97;;;7.90;;
3995;SDS011;2012;49.794;9.722;2023-01-19T02:21:45;10.87;;;7.47;;
3995;SDS011;2012;49.794;9.722;2023-01-19T02:24:25;9.53;;;7.00;;
3995;SDS011;2012;49.794;9.722;2023-01-19T02:26:52;12.50;;;7.20;;
3995;SDS011;2012;49.794;9.722;2023-01-19T02:29:21;11.20;;;7.67;;
3995;SDS011;2012;49.794;9.722;2023-01-19T02:31:49;9.23;;;7.00;;
3995;SDS011;2012;49.794;9.722;2023-01-19T02:34:18;10.40;;;7.23;;
3995;SDS011;2012;49.794;9.722;2023-01-19T02:36:47;10.20;;;6.90;;
3995;SDS011;2012;49.794;9.722;2023-01-19T02:39:31;11.80;;;6.83;;
3995;SDS011;2012;49.794;9.722;2023-01-19T02:42:26;7.87;;;6.27;;
3995;SDS011;2012;49.794;9.722;2023-01-19T02:44:57;10.47;;;7.10;;
3995;SDS011;2012;49.794;9.722;2023-01-19T02:47:24;13.30;;;7.63;;
3995;SDS011;2012;49.794;9.722;2023-01-19T02:49:55;12.53;;;8.43;;
3995;SDS011;2012;49.794;9.722;2023-01-19T02:52:26;9.60;;;6.50;;
3995;SDS011;2012;49.794;9.722;2023-01-19T02:54:57;14.00;;;8.30;;
3995;SDS011;2012;49.794;9.722;2023-01-19T03:00:20;13.63;;;7.63;;
3995;SDS011;2012;49.794;9.722;2023-01-19T03:05:53;9.73;;;7.60;;
3995;SDS011;2012;49.794;9.722;2023-01-19T03:08:40;12.57;;;7.93;;
3995;SDS011;2012;49.794;9.722;2023-01-19T03:11:13;12.13;;;7.90;;
3995;SDS011;2012;49.794;9.722;2023-01-19T03:13:41;14.80;;;8.80;;
3995;SDS011;2012;49.794;9.722;2023-01-19T03:18:39;12.23;;;7.53;;
3995;SDS011;2012;49.794;9.722;2023-01-19T03:21:10;12.57;;;8.37;;
3995;SDS011;2012;49.794;9.722;2023-01-19T03:23:39;11.00;;;7.40;;
3995;SDS011;2012;49.794;9.722;2023-01-19T03:26:09;11.10;;;7.83;;
3995;SDS011;2012;49.794;9.722;2023-01-19T03:28:40;12.10;;;8.47;;
3995;SDS011;2012;49.794;9.722;2023-01-19T03:31:10;8.97;;;7.17;;
3995;SDS011;2012;49.794;9.722;2023-01-19T03:33:54;12.20;;;7.80;;
3995;SDS011;2012;49.794;9.722;2023-01-19T03:39:02;10.13;;;7.03;;
3995;SDS011;2012;49.794;9.722;2023-01-19T03:41:31;12.27;;;7.37;;
3995;SDS011;2012;49.794;9.722;2023-01-19T03:43:59;12.83;;;7.40;;
3995;SDS011;2012;49.794;9.722;2023-01-19T03:46:27;14.10;;;8.20;;
3995;SDS011;2012;49.794;9.722;2023-01-19T03:48:56;14.87;;;7.37;;
3995;SDS011;2012;49.794;9.722;2023-01-19T03:51:23;11.20;;;7.53;;
3995;SDS011;2012;49.794;9.722;2023-01-19T03:53:51;13.60;;;8.33;;
3995;SDS011;2012;49.794;9.722;2023-01-19T03:56:19;14.47;;;8.73;;
3995;SDS011;2012;49.794;9.722;2023-01-19T03:58:48;21.87;;;7.93;;
3995;SDS011;2012;49.794;9.722;2023-01-19T04:01:15;11.10;;;7.83;;
3995;SDS011;2012;49.794;9.722;2023-01-19T04:03:43;16.00;;;8.20;;
3995;SDS011;2012;49.794;9.722;2023-01-19T04:06:09;14.40;;;7.83;;
3995;SDS011;2012;49.794;9.722;2023-01-19T04:08:36;17.00;;;7.83;;
3995;SDS011;2012;49.794;9.722;2023-01-19T04:11:03;11.60;;;7.83;;
3995;SDS011;2012;49.794;9.722;2023-01-19T04:13:30;11.20;;;7.83;;
3995;SDS011;2012;49.794;9.722;2023-01-19T04:16:00;9.60;;;6.90;;
3995;SDS011;2012;49.794;9.722;2023-01-19T04:18:28;14.63;;;7.87;;
3995;SDS011;2012;49.794;9.722;2023-01-19T04:20:59;15.53;;;8.40;;
3995;SDS011;2012;49.794;9.722;2023-01-19T04:23:30;10.63;;;7.80;;
3995;SDS011;2012;49.794;9.722;2023-01-19T04:25:59;16.53;;;7.90;;
3995;SDS011;2012;49.794;9.722;2023-01-19T04:28:28;14.27;;;8.83;;
3995;SDS011;2012;49.794;9.722;2023-01-19T04:30:55;21.83;;;8.97;;
3995;SDS011;2012;49.794;9.722;2023-01-19T04:33:22;11.97;;;7.70;;
3995;SDS011;2012;49.794;9.722;2023-01-19T04:35:51;15.10;;;8.90;;
3995;SDS011;2012;49.794;9.722;2023-01-19T04:38:19;15.83;;;8.63;;
3995;SDS011;2012;49.794;9.722;2023-01-19T04:40:47;12.50;;;8.07;;
3995;SDS011;2012;49.794;9.722;2023-01-19T04:43:15;18.03;;;8.77;;
3995;SDS011;2012;49.794;9.722;2023-01-19T04:45:42;10.53;;;7.83;;
3995;SDS011;2012;49.794;9.722;2023-01-19T04:48:10;13.60;;;8.50;;
3995;SDS011;2012;49.794;9.722;2023-01-19T04:50:37;13.30;;;9.57;;
3995;SDS011;2012;49.794;9.722;2023-01-19T04:53:04;16.07;;;8.37;;
3995;SDS011;2012;49.794;9.722;2023-01-19T04:55:31;13.07;;;8.67;;
3995;SDS011;2012;49.794;9.722;2023-01-19T04:57:57;14.00;;;8.53;;
3995;SDS011;2012;49.794;9.722;2023-01-19T05:00:24;13.00;;;8.77;;
3995;SDS011;2012;49.794;9.722;2023-01-19T05:02:52;16.73;;;11.40;;
3995;SDS011;2012;49.794;9.722;2023-01-19T05:05:19;19.73;;;11.03;;
3995;SDS011;2012;49.794;9.722;2023-01-19T05:07:45;21.53;;;10.90;;
3995;SDS011;2012;49.794;9.722;2023-01-19T05:10:12;16.87;;;9.37;;
3995;SDS011;2012;49.794;9.722;2023-01-19T05:12:39;19.03;;;10.37;;
3995;SDS011;2012;49.794;9.722;2023-01-19T05:15:07;25.03;;;10.53;;
3995;SDS011;2012;49.794;9.722;2023-01-19T05:17:35;14.40;;;8.93;;
3995;SDS011;2012;49.794;9.722;2023-01-19T05:20:02;15.47;;;9.27;;
3995;SDS011;2012;49.794;9.722;2023-01-19T05:22:29;16.77;;;10.33;;
3995;SDS011;2012;49.794;9.722;2023-01-19T05:24:56;17.53;;;10.63;;
3995;SDS011;2012;49.794;9.722;2023-01-19T05:27:23;18.23;;;12.43;;
3995;SDS011;2012;49.794;9.722;2023-01-19T05:29:50;21.97;;;12.13;;
3995;SDS011;2012;49.794;9.722;2023-01-19T05:32:17;23.40;;;11.80;;
3995;SDS011;2012;49.794;9.722;2023-01-19T05:34:43;21.47;;;10.97;;
3995;SDS011;2012;49.794;9.722;2023-01-19T05:37:10;18.23;;;10.40;;
3995;SDS011;2012;49.794;9.722;2023-01-19T05:39:37;17.43;;;9.80;;
3995;SDS011;2012;49.794;9.722;2023-01-19T05:42:03;15.17;;;8.30;;
3995;SDS011;2012;49.794;9.722;2023-01-19T05:44:30;12.63;;;7.87;;
3995;SDS011;2012;49.794;9.722;2023-01-19T05:46:57;13.43;;;7.93;;
3995;SDS011;2012;49.794;9.722;2023-01-19T05:49:24;14.43;;;8.83;;
3995;SDS011;2012;49.794;9.722;2023-01-19T05:51:50;12.93;;;7.63;;
3995;SDS011;2012;49.794;9.722;2023-01-19T05:54:17;15.77;;;8.00;;
3995;SDS011;2012;49.794;9.722;2023-01-19T05:56:44;11.77;;;8.37;;
3995;SDS011;2012;49.794;9.722;2023-01-19T05:59:10;10.53;;;7.63;;
3995;SDS011;2012;49.794;9.722;2023-01-19T06:01:37;13.43;;;7.50;;
3995;SDS011;2012;49.794;9.722;2023-01-19T06:04:05;15.47;;;8.40;;
3995;SDS011;2012;49.794;9.722;2023-01-19T06:06:32;11.37;;;8.10;;
3995;SDS011;2012;49.794;9.722;2023-01-19T06:08:59;9.83;;;7.43;;
3995;SDS011;2012;49.794;9.722;2023-01-19T06:11:25;14.90;;;7.50;;
3995;SDS011;2012;49.794;9.722;2023-01-19T06:13:52;11.50;;;7.30;;
3995;SDS011;2012;49.794;9.722;2023-01-19T06:16:19;14.70;;;8.10;;
3995;SDS011;2012;49.794;9.722;2023-01-19T06:18:45;13.40;;;8.00;;
3995;SDS011;2012;49.794;9.722;2023-01-19T06:21:12;12.07;;;8.87;;
3995;SDS011;2012;49.794;9.722;2023-01-19T06:23:39;12.70;;;8.20;;
3995;SDS011;2012;49.794;9.722;2023-01-19T06:26:06;12.90;;;8.00;;
3995;SDS011;2012;49.794;9.722;2023-01-19T06:28:33;9.60;;;7.07;;
3995;SDS011;2012;49.794;9.722;2023-01-19T06:31:00;17.07;;;7.60;;
3995;SDS011;2012;49.794;9.722;2023-01-19T06:33:27;12.00;;;7.97;;
3995;SDS011;2012;49.794;9.722;2023-01-19T06:35:54;11.03;;;7.00;;
3995;SDS011;2012;49.794;9.722;2023-01-19T06:38:21;16.30;;;7.90;;
3995;SDS011;2012;49.794;9.722;2023-01-19T06:40:52;11.87;;;8.10;;
3995;SDS011;2012;49.794;9.722;2023-01-19T06:43:20;13.53;;;8.30;;
3995;SDS011;2012;49.794;9.722;2023-01-19T06:45:47;11.27;;;8.03;;
3995;SDS011;2012;49.794;9.722;2023-01-19T06:48:15;13.87;;;8.50;;
3995;SDS011;2012;49.794;9.722;2023-01-19T06:50:46;19.30;;;9.33;;
3995;SDS011;2012;49.794;9.722;2023-01-19T06:53:14;10.93;;;8.30;;
3995;SDS011;2012;49.794;9.722;2023-01-19T06:55:42;17.97;;;9.20;;
3995;SDS011;2012;49.794;9.722;2023-01-19T06:58:09;18.10;;;9.07;;
3995;SDS011;2012;49.794;9.722;2023-01-19T07:00:36;11.93;;;8.53;;
3995;SDS011;2012;49.794;9.722;2023-01-19T07:03:06;16.60;;;9.90;;
3995;SDS011;2012;49.794;9.722;2023-01-19T07:05:34;14.03;;;8.77;;
3995;SDS011;2012;49.794;9.722;2023-01-19T07:08:01;14.20;;;10.40;;
3995;SDS011;2012;49.794;9.722;2023-01-19T07:10:29;18.73;;;11.37;;
3995;SDS011;2012;49.794;9.722;2023-01-19T07:13:16;26.13;;;11.60;;
3995;SDS011;2012;49.794;9.722;2023-01-19T07:15:42;14.93;;;10.40;;
3995;SDS011;2012;49.794;9.722;2023-01-19T07:18:09;14.93;;;9.40;;
3995;SDS011;2012;49.794;9.722;2023-01-19T07:20:36;15.00;;;10.00;;
3995;SDS011;2012;49.794;9.722;2023-01-19T07:23:03;11.90;;;8.83;;
3995;SDS011;2012;49.794;9.722;2023-01-19T07:25:30;13.90;;;8.47;;
3995;SDS011;2012;49.794;9.722;2023-01-19T07:27:57;16.13;;;8.60;;
3995;SDS011;2012;49.794;9.722;2023-01-19T07:30:24;15.90;;;9.47;;
3995;SDS011;2012;49.794;9.722;2023-01-19T07:32:53;14.40;;;9.40;;
3995;SDS011;2012;49.794;9.722;2023-01-19T07:35:22;20.90;;;10.60;;
3995;SDS011;2012;49.794;9.722;2023-01-19T07:37:50;16.27;;;10.67;;
3995;SDS011;2012;49.794;9.722;2023-01-19T07:40:16;15.60;;;10.40;;
3995;SDS011;2012;49.794;9.722;2023-01-19T07:42:46;17.07;;;10.57;;
3995;SDS011;2012;49.794;9.722;2023-01-19T07:45:17;17.47;;;9.83;;
3995;SDS011;2012;49.794;9.722;2023-01-19T07:47:46;21.97;;;10.90;;
3995;SDS011;2012;49.794;9.722;2023-01-19T07:50:15;16.73;;;10.67;;
3995;SDS011;2012;49.794;9.722;2023-01-19T07:52:42;15.50;;;10.57;;
3995;SDS011;2012;49.794;9.722;2023-01-19T07:55:09;18.57;;;9.43;;
3995;SDS011;2012;49.794;9.722;2023-01-19T07:57:36;15.17;;;9.20;;
3995;SDS011;2012;49.794;9.722;2023-01-19T08:00:03;17.43;;;9.87;;
3995;SDS011;2012;49.794;9.722;2023-01-19T08:02:30;14.20;;;10.00;;
3995;SDS011;2012;49.794;9.722;2023-01-19T08:04:59;15.73;;;10.50;;
3995;SDS011;2012;49.794;9.722;2023-01-19T08:07:25;16.90;;;11.00;;
3995;SDS011;2012;49.794;9.722;2023-01-19T08:09:52;15.60;;;10.43;;
3995;SDS011;2012;49.794;9.722;2023-01-19T08:12:19;17.73;;;11.77;;
3995;SDS011;2012;49.794;9.722;2023-01-19T08:14:45;13.77;;;10.30;;
3995;SDS011;2012;49.794;9.722;2023-01-19T08:17:12;17.93;;;10.57;;
3995;SDS011;2012;49.794;9.722;2023-01-19T08:19:39;18.03;;;11.07;;
3995;SDS011;2012;49.794;9.722;2023-01-19T08:22:07;16.93;;;10.87;;
3995;SDS011;2012;49.794;9.722;2023-01-19T08:24:34;18.40;;;11.53;;
3995;SDS011;2012;49.794;9.722;2023-01-19T08:27:01;17.97;;;11.23;;
3995;SDS011;2012;49.794;9.722;2023-01-19T08:29:28;22.67;;;13.07;;
3995;SDS011;2012;49.794;9.722;2023-01-19T08:31:57;27.53;;;15.07;;
3995;SDS011;2012;49.794;9.722;2023-01-19T08:34:25;32.03;;;17.67;;
3995;SDS011;2012;49.794;9.722;2023-01-19T08:36:52;32.10;;;20.00;;
3995;SDS011;2012;49.794;9.722;2023-01-19T08:39:19;36.50;;;18.73;;
3995;SDS011;2012;49.794;9.722;2023-01-19T08:41:45;35.10;;;19.23;;
3995;SDS011;2012;49.794;9.722;2023-01-19T08:44:12;44.07;;;23.90;;
3995;SDS011;2012;49.794;9.722;2023-01-19T08:46:39;52.60;;;26.30;;
3995;SDS011;2012;49.794;9.722;2023-01-19T08:49:06;43.83;;;25.27;;
3995;SDS011;2012;49.794;9.722;2023-01-19T08:51:33;27.50;;;18.37;;
3995;SDS011;2012;49.794;9.722;2023-01-19T08:54:00;26.53;;;15.90;;
3995;SDS011;2012;49.794;9.722;2023-01-19T08:56:27;21.57;;;15.40;;
3995;SDS011;2012;49.794;9.722;2023-01-19T08:58:54;23.40;;;13.80;;
3995;SDS011;2012;49.794;9.722;2023-01-19T09:01:34;18.73;;;13.27;;
3995;SDS011;2012;49.794;9.722;2023-01-19T09:04:02;19.33;;;13.17;;
3995;SDS011;2012;49.794;9.722;2023-01-19T09:06:29;18.57;;;12.93;;
3995;SDS011;2012;49.794;9.722;2023-01-19T09:08:56;16.63;;;12.03;;
3995;SDS011;2012;49.794;9.722;2023-01-19T09:11:22;20.00;;;11.27;;
3995;SDS011;2012;49.794;9.722;2023-01-19T09:13:49;18.30;;;12.00;;
3995;SDS011;2012;49.794;9.722;2023-01-19T09:16:16;17.07;;;11.03;;
3995;SDS011;2012;49.794;9.722;2023-01-19T09:18:43;13.23;;;9.97;;
3995;SDS011;2012;49.794;9.722;2023-01-19T09:21:11;16.63;;;10.63;;
3995;SDS011;2012;49.794;9.722;2023-01-19T09:23:38;17.20;;;10.60;;
3995;SDS011;2012;49.794;9.722;2023-01-19T09:26:05;15.10;;;9.73;;
3995;SDS011;2012;49.794;9.722;2023-01-19T09:28:32;20.97;;;10.70;;
3995;SDS011;2012;49.794;9.722;2023-01-19T09:31:03;12.70;;;9.87;;
3995;SDS011;2012;49.794;9.722;2023-01-19T09:33:32;18.50;;;11.77;;
3995;SDS011;2012;49.794;9.722;2023-01-19T09:35:59;21.00;;;11.47;;
3995;SDS011;2012;49.794;9.722;2023-01-19T09:38:27;15.63;;;10.73;;
3995;SDS011;2012;49.794;9.722;2023-01-19T09:40:58;13.80;;;9.13;;
3995;SDS011;2012;49.794;9.722;2023-01-19T09:43:39;15.57;;;9.33;;
3995;SDS011;2012;49.794;9.722;2023-01-19T09:46:18;13.97;;;9.37;;
3995;SDS011;2012;49.794;9.722;2023-01-19T09:49:03;16.37;;;10.20;;
3995;SDS011;2012;49.794;9.722;2023-01-19T09:51:49;30.40;;;14.73;;
3995;SDS011;2012;49.794;9.722;2023-01-19T09:54:28;10.13;;;6.73;;
3995;SDS011;2012;49.794;9.722;2023-01-19T09:57:00;20.70;;;12.17;;
3995;SDS011;2012;49.794;9.722;2023-01-19T09:59:28;13.80;;;8.10;;
3995;SDS011;2012;49.794;9.722;2023-01-19T10:15:19;13.30;;;7.20;;
3995;SDS011;2012;49.794;9.722;2023-01-19T10:18:11;15.17;;;8.37;;
3995;SDS011;2012;49.794;9.722;2023-01-19T10:20:52;10.03;;;6.90;;
3995;SDS011;2012;49.794;9.722;2023-01-19T10:23:41;11.83;;;6.60;;
3995;SDS011;2012;49.794;9.722;2023-01-19T10:26:16;10.87;;;7.27;;
3995;SDS011;2012;49.794;9.722;2023-01-19T10:28:49;13.70;;;7.00;;
3995;SDS011;2012;49.794;9.722;2023-01-19T10:31:21;12.97;;;6.80;;
3995;SDS011;2012;49.794;9.722;2023-01-19T10:33:50;10.80;;;6.67;;
3995;SDS011;2012;49.794;9.722;2023-01-19T10:36:20;9.00;;;6.90;;
3995;SDS011;2012;49.794;9.722;2023-01-19T10:38:51;7.70;;;6.57;;
3995;SDS011;2012;49.794;9.722;2023-01-19T10:41:19;12.67;;;7.43;;
3995;SDS011;2012;49.794;9.722;2023-01-19T10:43:57;11.00;;;7.40;;
3995;SDS011;2012;49.794;9.722;2023-01-19T10:46:33;18.90;;;8.20;;
3995;SDS011;2012;49.794;9.722;2023-01-19T10:49:06;11.30;;;7.80;;
3995;SDS011;2012;49.794;9.722;2023-01-19T10:52:05;12.83;;;8.80;;
3995;SDS011;2012;49.794;9.722;2023-01-19T10:54:34;18.30;;;10.50;;
3995;SDS011;2012;49.794;9.722;2023-01-19T10:57:03;16.50;;;10.30;;
3995;SDS011;2012;49.794;9.722;2023-01-19T10:59:48;18.53;;;10.50;;
3995;SDS011;2012;49.794;9.722;2023-01-19T11:02:20;15.77;;;9.07;;
3995;SDS011;2012;49.794;9.722;2023-01-19T11:04:55;15.10;;;8.87;;
3995;SDS011;2012;49.794;9.722;2023-01-19T11:07:31;14.37;;;9.40;;
3995;SDS011;2012;49.794;9.722;2023-01-19T11:15:34;13.23;;;8.53;;
3995;SDS011;2012;49.794;9.722;2023-01-19T11:18:07;11.90;;;8.43;;
3995;SDS011;2012;49.794;9.722;2023-01-19T11:20:49;15.70;;;8.30;;
3995;SDS011;2012;49.794;9.722;2023-01-19T11:23:30;13.40;;;9.30;;
3995;SDS011;2012;49.794;9.722;2023-01-19T11:26:15;14.07;;;8.93;;
3995;SDS011;2012;49.794;9.722;2023-01-19T11:28:50;14.30;;;9.80;;
3995;SDS011;2012;49.794;9.722;2023-01-19T11:31:29;13.67;;;8.73;;
3995;SDS011;2012;49.794;9.722;2023-01-19T11:33:59;15.50;;;9.90;;
3995;SDS011;2012;49.794;9.722;2023-01-19T11:36:29;26.33;;;10.50;;
3995;SDS011;2012;49.794;9.722;2023-01-19T11:39:24;14.77;;;9.10;;
3995;SDS011;2012;49.794;9.722;2023-01-19T11:41:53;15.27;;;9.23;;
3995;SDS011;2012;49.794;9.722;2023-01-19T11:44:23;15.60;;;9.93;;
3995;SDS011;2012;49.794;9.722;2023-01-19T11:47:02;14.27;;;10.00;;
3995;SDS011;2012;49.794;9.722;2023-01-19T11:52:27;15.60;;;11.60;;
3995;SDS011;2012;49.794;9.722;2023-01-19T11:55:18;18.87;;;11.17;;
3995;SDS011;2012;49.794;9.722;2023-01-19T11:58:11;18.60;;;10.10;;
3995;SDS011;2012;49.794;9.722;2023-01-19T12:05:54;11.87;;;8.80;;
3995;SDS011;2012;49.794;9.722;2023-01-19T12:08:44;13.17;;;8.90;;
3995;SDS011;2012;49.794;9.722;2023-01-19T12:11:18;12.10;;;9.07;;
3995;SDS011;2012;49.794;9.722;2023-01-19T12:14:05;14.17;;;8.90;;
3995;SDS011;2012;49.794;9.722;2023-01-19T12:16:44;13.70;;;8.40;;
3995;SDS011;2012;49.794;9.722;2023-01-19T12:19:13;15.63;;;9.53;;
3995;SDS011;2012;49.794;9.722;2023-01-19T12:21:43;9.97;;;7.50;;
3995;SDS011;2012;49.794;9.722;2023-01-19T12:24:22;11.47;;;7.30;;
3995;SDS011;2012;49.794;9.722;2023-01-19T12:27:04;23.13;;;8.30;;
3995;SDS011;2012;49.794;9.722;2023-01-19T12:29:40;15.50;;;8.10;;
3995;SDS011;2012;49.794;9.722;2023-01-19T12:34:39;11.60;;;7.70;;
3995;SDS011;2012;49.794;9.722;2023-01-19T12:39:57;13.87;;;9.00;;
3995;SDS011;2012;49.794;9.722;2023-01-19T12:42:26;17.10;;;8.70;;
3995;SDS011;2012;49.794;9.722;2023-01-19T12:45:04;18.00;;;9.00;;
3995;SDS011;2012;49.794;9.722;2023-01-19T12:47:33;14.10;;;7.50;;
3995;SDS011;2012;49.794;9.722;2023-01-19T12:50:03;12.30;;;8.37;;
3995;SDS011;2012;49.794;9.722;2023-01-19T12:52:46;16.73;;;9.70;;
3995;SDS011;2012;49.794;9.722;2023-01-19T12:57:55;12.90;;;8.27;;
3995;SDS011;2012;49.794;9.722;2023-01-19T13:00:30;14.40;;;8.17;;
3995;SDS011;2012;49.794;9.722;2023-01-19T13:03:01;12.23;;;7.97;;
3995;SDS011;2012;49.794;9.722;2023-01-19T13:19:08;14.10;;;8.50;;
3995;SDS011;2012;49.794;9.722;2023-01-19T13:21:45;12.57;;;8.40;;
3995;SDS011;2012;49.794;9.722;2023-01-19T13:24:17;10.50;;;8.30;;
3995;SDS011;2012;49.794;9.722;2023-01-19T13:29:22;15.20;;;9.00;;
3995;SDS011;2012;49.794;9.722;2023-01-19T13:31:56;13.53;;;9.30;;
3995;SDS011;2012;49.794;9.722;2023-01-19T13:35:11;14.47;;;9.43;;
3995;SDS011;2012;49.794;9.722;2023-01-19T13:37:26;13.00;;;9.43;;
3995;SDS011;2012;49.794;9.722;2023-01-19T13:39:59;12.70;;;8.17;;
3995;SDS011;2012;49.794;9.722;2023-01-19T13:42:37;21.03;;;9.10;;
3995;SDS011;2012;49.794;9.722;2023-01-19T13:45:19;11.63;;;7.73;;
3995;SDS011;2012;49.794;9.722;2023-01-19T13:47:52;18.53;;;10.03;;
3995;SDS011;2012;49.794;9.722;2023-01-19T13:50:23;14.20;;;8.80;;
3995;SDS011;2012;49.794;9.722;2023-01-19T13:52:52;14.20;;;8.43;;
3995;SDS011;2012;49.794;9.722;2023-01-19T13:55:21;13.17;;;9.10;;
3995;SDS011;2012;49.794;9.722;2023-01-19T13:57:49;14.63;;;9.40;;
3995;SDS011;2012;49.794;9.722;2023-01-19T14:00:18;12.63;;;9.00;;
3995;SDS011;2012;49.794;9.722;2023-01-19T14:02:51;12.23;;;9.40;;
3995;SDS011;2012;49.794;9.722;2023-01-19T14:05:26;12.83;;;8.80;;
3995;SDS011;2012;49.794;9.722;2023-01-19T14:07:58;15.40;;;9.57;;
3995;SDS011;2012;49.794;9.722;2023-01-19T14:10:28;13.03;;;8.67;;
3995;SDS011;2012;49.794;9.722;2023-01-19T14:12:57;16.47;;;8.73;;
3995;SDS011;2012;49.794;9.722;2023-01-19T14:15:25;16.70;;;9.70;;
3995;SDS011;2012;49.794;9.722;2023-01-19T14:29:10;12.17;;;8.53;;
3995;SDS011;2012;49.794;9.722;2023-01-19T14:34:47;11.47;;;8.40;;
3995;SDS011;2012;49.794;9.722;2023-01-19T14:37:36;10.07;;;8.00;;
3995;SDS011;2012;49.794;9.722;2023-01-19T14:45:15;13.90;;;8.97;;
3995;SDS011;2012;49.794;9.722;2023-01-19T14:48:32;20.03;;;9.40;;
3995;SDS011;2012;49.794;9.722;2023-01-19T14:50:43;20.17;;;9.50;;
3995;SDS011;2012;49.794;9.722;2023-01-19T14:53:26;15.10;;;9.40;;
3995;SDS011;2012;49.794;9.722;2023-01-19T14:55:58;14.50;;;9.30;;
3995;SDS011;2012;49.794;9.722;2023-01-19T14:58:29;14.67;;;8.83;;
3995;SDS011;2012;49.794;9.722;2023-01-19T15:00:57;14.80;;;10.30;;
3995;SDS011;2012;49.794;9.722;2023-01-19T15:03:25;13.53;;;9.67;;
3995;SDS011;2012;49.794;9.722;2023-01-19T15:06:14;22.43;;;9.83;;
3995;SDS011;2012;49.794;9.722;2023-01-19T15:08:42;13.93;;;9.80;;
3995;SDS011;2012;49.794;9.722;2023-01-19T15:13:57;13.40;;;8.67;;
3995;SDS011;2012;49.794;9.722;2023-01-19T15:16:24;16.67;;;10.70;;
3995;SDS011;2012;49.794;9.722;2023-01-19T15:18:53;14.23;;;10.03;;
3995;SDS011;2012;49.794;9.722;2023-01-19T15:21:20;12.67;;;9.47;;
3995;SDS011;2012;49.794;9.722;2023-01-19T15:23:54;17.90;;;9.90;;
3995;SDS011;2012;49.794;9.722;2023-01-19T15:26:22;17.10;;;11.37;;
3995;SDS011;2012;49.794;9.722;2023-01-19T15:28:50;23.83;;;13.90;;
3995;SDS011;2012;49.794;9.722;2023-01-19T15:31:20;16.77;;;9.93;;
3995;SDS011;2012;49.794;9.722;2023-01-19T15:33:48;15.90;;;10.83;;
3995;SDS011;2012;49.794;9.722;2023-01-19T15:36:18;18.80;;;12.07;;
3995;SDS011;2012;49.794;9.722;2023-01-19T15:38:47;14.27;;;10.60;;
3995;SDS011;2012;49.794;9.722;2023-01-19T15:41:26;21.03;;;12.27;;
3995;SDS011;2012;49.794;9.722;2023-01-19T15:43:57;15.70;;;11.10;;
3995;SDS011;2012;49.794;9.722;2023-01-19T15:46:24;30.67;;;17.43;;
3995;SDS011;2012;49.794;9.722;2023-01-19T15:48:51;18.07;;;11.50;;
3995;SDS011;2012;49.794;9.722;2023-01-19T15:51:19;15.80;;;10.87;;
3995;SDS011;2012;49.794;9.722;2023-01-19T15:53:50;14.70;;;10.40;;
3995;SDS011;2012;49.794;9.722;2023-01-19T15:56:19;17.53;;;11.30;;
3995;SDS011;2012;49.794;9.722;2023-01-19T15:58:50;17.53;;;11.60;;
3995;SDS011;2012;49.794;9.722;2023-01-19T16:01:18;16.97;;;10.80;;
3995;SDS011;2012;49.794;9.722;2023-01-19T16:03:47;19.13;;;11.10;;
3995;SDS011;2012;49.794;9.722;2023-01-19T16:06:14;17.47;;;10.10;;
3995;SDS011;2012;49.794;9.722;2023-01-19T16:08:43;14.83;;;9.07;;
3995;SDS011;2012;49.794;9.722;2023-01-19T16:11:11;15.50;;;11.23;;
3995;SDS011;2012;49.794;9.722;2023-01-19T16:13:43;18.43;;;11.40;;
3995;SDS011;2012;49.794;9.722;2023-01-19T16:16:18;18.93;;;11.10;;
3995;SDS011;2012;49.794;9.722;2023-01-19T16:18:46;16.60;;;10.40;;
3995;SDS011;2012;49.794;9.722;2023-01-19T16:21:14;17.83;;;11.47;;
3995;SDS011;2012;49.794;9.722;2023-01-19T16:23:41;18.40;;;11.07;;
3995;SDS011;2012;49.794;9.722;2023-01-19T16:28:59;38.40;;;18.27;;
3995;SDS011;2012;49.794;9.722;2023-01-19T16:31:34;24.37;;;15.60;;
3995;SDS011;2012;49.794;9.722;2023-01-19T16:34:05;20.80;;;13.57;;
3995;SDS011;2012;49.794;9.722;2023-01-19T16:36:33;16.93;;;12.00;;
3995;SDS011;2012;49.794;9.722;2023-01-19T16:39:11;24.23;;;14.67;;
3995;SDS011;2012;49.794;9.722;2023-01-19T16:41:39;35.10;;;16.80;;
3995;SDS011;2012;49.794;9.722;2023-01-19T16:44:07;29.33;;;16.30;;
3995;SDS011;2012;49.794;9.722;2023-01-19T16:46:36;22.93;;;13.93;;
3995;SDS011;2012;49.794;9.722;2023-01-19T16:49:06;18.90;;;13.00;;